createdAt,value
2022-09-13T00:01:35.317Z,10.73
2022-09-13T00:04:02.726Z,10.68
2022-09-13T00:06:29.671Z,10.58
2022-09-13T00:08:56.617Z,10.60
2022-09-13T00:11:27.825Z,10.67
2022-09-13T00:13:56.301Z,10.44
2022-09-13T00:16:27.784Z,10.41
2022-09-13T00:18:55.573Z,10.40
2022-09-13T00:21:24.560Z,10.38
2022-09-13T00:23:54.296Z,10.36
2022-09-13T00:26:27.907Z,10.29
2022-09-13T00:28:57.978Z,10.29
2022-09-13T00:31:28.045Z,10.28
2022-09-13T00:33:56.137Z,10.35
2022-09-13T00:36:23.135Z,10.27
2022-09-13T00:38:50.040Z,10.25
2022-09-13T00:41:19.993Z,10.28
2022-09-13T00:43:59.522Z,10.25
2022-09-13T00:46:49.052Z,10.21
2022-09-13T00:49:36.875Z,10.11
2022-09-13T00:52:10.251Z,10.25
2022-09-13T00:54:46.079Z,10.17
2022-09-13T00:57:15.863Z,10.18
2022-09-13T01:00:13.869Z,10.14
2022-09-13T01:02:48.689Z,10.14
2022-09-13T01:05:20.683Z,10.28
2022-09-13T01:07:47.875Z,10.22
2022-09-13T01:10:15.052Z,10.08
2022-09-13T01:13:05.425Z,10.21
2022-09-13T01:15:32.319Z,10.18
2022-09-13T01:17:59.429Z,10.16
2022-09-13T01:21:04.453Z,10.13
2022-09-13T01:24:02.429Z,10.06
2022-09-13T01:27:15.126Z,10.00
2022-09-13T01:30:05.405Z,10.07
2022-09-13T01:33:29.895Z,9.91
2022-09-13T01:36:18.882Z,9.97
2022-09-13T01:39:04.947Z,9.87
2022-09-13T01:42:03.346Z,9.95
2022-09-13T01:44:56.713Z,9.99
2022-09-13T01:47:34.009Z,10.07
2022-09-13T01:50:26.747Z,9.96
2022-09-13T01:53:25.805Z,9.98
2022-09-13T01:56:18.612Z,10.01
2022-09-13T01:58:59.436Z,9.93
2022-09-13T02:01:38.631Z,9.89
2022-09-13T02:04:17.115Z,9.81
2022-09-13T02:06:58.117Z,9.92
2022-09-13T02:09:28.627Z,9.76
2022-09-13T02:12:03.801Z,9.62
2022-09-13T02:14:44.332Z,9.71
2022-09-13T02:17:20.158Z,9.71
2022-09-13T02:19:58.750Z,9.70
2022-09-13T02:22:37.666Z,9.73
2022-09-13T02:25:14.578Z,9.68
2022-09-13T02:27:48.407Z,9.77
2022-09-13T02:30:16.185Z,9.66
2022-09-13T02:33:01.249Z,9.40
2022-09-13T02:35:51.122Z,9.37
2022-09-13T02:38:59.841Z,9.46
2022-09-13T02:41:55.104Z,9.36
2022-09-13T02:44:54.030Z,9.38
2022-09-13T02:47:54.322Z,9.39
2022-09-13T02:50:58.297Z,9.47
2022-09-13T02:53:53.498Z,9.39
2022-09-13T02:56:43.751Z,9.53
2022-09-13T02:59:16.561Z,9.55
2022-09-13T03:01:52.674Z,9.58
2022-09-13T03:04:19.633Z,9.57
2022-09-13T03:06:46.608Z,9.55
2022-09-13T03:09:14.049Z,9.56
2022-09-13T03:11:55.699Z,9.47
2022-09-13T03:15:01.018Z,9.57
2022-09-13T03:18:22.576Z,9.60
2022-09-13T03:21:08.115Z,9.54
2022-09-13T03:24:15.755Z,9.47
2022-09-13T03:27:15.551Z,9.39
2022-09-13T03:30:13.325Z,9.55
2022-09-13T03:33:20.435Z,9.44
2022-09-13T03:35:57.723Z,9.44
2022-09-13T03:38:46.171Z,9.37
2022-09-13T03:41:20.311Z,9.39
2022-09-13T03:43:59.780Z,9.44
2022-09-13T03:46:35.895Z,9.44
2022-09-13T03:49:09.071Z,9.31
2022-09-13T03:51:37.058Z,9.37
2022-09-13T03:54:09.795Z,9.45
2022-09-13T03:56:36.786Z,9.46
2022-09-13T03:59:03.771Z,9.23
2022-09-13T04:01:31.229Z,9.24
2022-09-13T04:03:59.201Z,9.43
2022-09-13T04:06:26.129Z,9.52
2022-09-13T04:08:53.049Z,9.45
2022-09-13T04:11:21.577Z,9.53
2022-09-13T04:13:48.698Z,9.42
2022-09-13T04:16:15.773Z,9.48
2022-09-13T04:18:42.705Z,9.65
2022-09-13T04:21:09.825Z,9.52
2022-09-13T04:23:36.777Z,9.45
2022-09-13T04:26:06.374Z,9.62
2022-09-13T04:28:33.333Z,9.69
2022-09-13T04:31:00.286Z,9.81
2022-09-13T04:33:27.183Z,9.73
2022-09-13T04:36:00.689Z,10.44
2022-09-13T04:38:28.019Z,11.98
2022-09-13T04:40:56.056Z,13.43
2022-09-13T04:43:24.451Z,14.23
2022-09-13T04:45:51.920Z,14.95
2022-09-13T04:48:19.005Z,15.47
2022-09-13T04:50:46.004Z,16.01
2022-09-13T04:53:13.240Z,17.01
2022-09-13T04:55:40.205Z,17.42
2022-09-13T04:58:07.112Z,18.42
2022-09-13T05:00:34.509Z,19.43
2022-09-13T05:03:01.715Z,19.59
2022-09-13T05:05:29.383Z,20.74
2022-09-13T05:07:56.373Z,21.07
2022-09-13T05:10:23.832Z,22.10
2022-09-13T05:12:50.810Z,22.94
2022-09-13T05:15:17.912Z,23.72
2022-09-13T05:17:44.921Z,24.33
2022-09-13T05:20:11.901Z,25.43
2022-09-13T05:22:38.807Z,25.86
2022-09-13T05:25:06.697Z,25.54
2022-09-13T05:27:33.823Z,26.08
2022-09-13T05:30:02.898Z,26.75
2022-09-13T05:32:32.442Z,28.26
2022-09-13T05:34:59.355Z,28.52
2022-09-13T05:37:26.270Z,29.11
2022-09-13T05:40:11.570Z,29.64
2022-09-13T05:42:40.235Z,29.88
2022-09-13T05:45:08.615Z,30.83
2022-09-13T05:47:35.554Z,31.74
2022-09-13T05:50:10.460Z,31.94
2022-09-13T05:52:38.907Z,32.53
2022-09-13T05:55:06.004Z,32.60
2022-09-13T05:57:32.948Z,32.75
2022-09-13T05:59:59.910Z,34.12
2022-09-13T06:02:26.826Z,34.50
2022-09-13T06:04:53.792Z,34.97
2022-09-13T06:07:20.687Z,35.42
2022-09-13T06:09:47.724Z,36.01
2022-09-13T06:12:14.650Z,37.34
2022-09-13T06:14:41.619Z,37.30
2022-09-13T06:17:08.570Z,37.39
2022-09-13T06:19:35.527Z,38.27
2022-09-13T06:22:02.452Z,37.97
2022-09-13T06:24:29.354Z,37.83
2022-09-13T06:26:56.310Z,37.83
2022-09-13T06:29:23.222Z,37.52
2022-09-13T06:31:50.311Z,37.15
2022-09-13T06:34:17.577Z,36.60
2022-09-13T06:36:45.615Z,36.54
2022-09-13T06:39:12.543Z,35.52
2022-09-13T06:41:39.703Z,36.81
2022-09-13T06:44:07.056Z,36.69
2022-09-13T06:46:35.829Z,35.94
2022-09-13T06:49:06.695Z,35.64
2022-09-13T06:51:35.336Z,36.09
2022-09-13T06:54:04.047Z,36.28
2022-09-13T06:56:34.790Z,35.99
2022-09-13T06:59:05.127Z,36.16
2022-09-13T07:01:35.896Z,35.26
2022-09-13T07:04:25.942Z,34.44
2022-09-13T07:06:52.944Z,34.56
2022-09-13T07:09:22.139Z,34.41
2022-09-13T07:11:55.466Z,34.26
2022-09-13T07:14:28.776Z,33.90
2022-09-13T07:16:56.076Z,34.30
2022-09-13T07:19:28.482Z,34.43
2022-09-13T07:21:56.905Z,34.64
2022-09-13T07:24:24.700Z,35.40
2022-09-13T07:26:51.991Z,33.92
2022-09-13T07:29:25.383Z,34.56
2022-09-13T07:31:54.800Z,34.82
2022-09-13T07:34:24.117Z,34.93
2022-09-13T07:36:52.510Z,35.62
2022-09-13T07:39:22.745Z,35.15
2022-09-13T07:41:51.782Z,35.22
2022-09-13T07:44:18.900Z,35.97
2022-09-13T07:46:45.950Z,36.12
2022-09-13T07:49:16.560Z,35.80
2022-09-13T07:51:44.402Z,35.83
2022-09-13T07:54:17.878Z,36.08
2022-09-13T07:56:45.791Z,35.25
2022-09-13T07:59:15.686Z,35.12
2022-09-13T08:01:46.473Z,35.14
2022-09-13T08:04:18.013Z,34.56
2022-09-13T08:06:46.532Z,34.32
2022-09-13T08:09:14.678Z,33.42
2022-09-13T08:11:55.170Z,32.38
2022-09-13T08:14:23.403Z,32.83
2022-09-13T08:16:50.735Z,31.85
2022-09-13T08:19:18.757Z,32.17
2022-09-13T08:21:47.063Z,31.79
2022-09-13T08:24:18.550Z,30.87
2022-09-13T08:26:45.741Z,31.04
2022-09-13T08:29:14.353Z,31.25
2022-09-13T08:31:42.287Z,31.67
2022-09-13T08:34:15.241Z,31.00
2022-09-13T08:36:43.199Z,30.54
2022-09-13T08:39:13.569Z,31.13
2022-09-13T08:41:40.852Z,30.80
2022-09-13T08:44:28.376Z,30.86
2022-09-13T08:47:35.084Z,31.14
2022-09-13T08:50:19.879Z,30.90
2022-09-13T08:53:17.520Z,31.20
2022-09-13T08:56:10.574Z,31.01
2022-09-13T08:58:56.136Z,31.15
2022-09-13T09:01:53.369Z,30.28
2022-09-13T09:04:48.557Z,30.28
2022-09-13T09:07:20.296Z,30.01
2022-09-13T09:10:08.349Z,29.21
2022-09-13T09:12:48.032Z,28.42
2022-09-13T09:15:22.705Z,28.37
2022-09-13T09:18:07.758Z,28.64
2022-09-13T09:20:46.186Z,28.43
2022-09-13T09:23:30.528Z,28.58
2022-09-13T09:26:16.183Z,28.84
2022-09-13T09:28:55.782Z,28.89
2022-09-13T09:32:03.388Z,28.26
2022-09-13T09:35:04.322Z,29.07
2022-09-13T09:37:32.114Z,28.11
2022-09-13T09:40:08.977Z,28.13
2022-09-13T09:42:49.211Z,27.78
2022-09-13T09:45:33.491Z,27.31
2022-09-13T09:48:09.427Z,28.02
2022-09-13T09:50:44.284Z,28.30
2022-09-13T09:53:37.204Z,27.47
2022-09-13T09:56:32.604Z,27.50
2022-09-13T09:59:00.001Z,28.00
2022-09-13T10:01:31.012Z,27.97
2022-09-13T10:04:12.350Z,27.99
2022-09-13T10:06:42.025Z,27.40
2022-09-13T10:09:20.599Z,27.01
2022-09-13T10:11:56.356Z,27.05
2022-09-13T10:14:38.405Z,26.36
2022-09-13T10:17:06.459Z,26.63
2022-09-13T10:19:33.771Z,26.05
2022-09-13T10:22:05.757Z,26.37
2022-09-13T10:24:33.473Z,26.40
2022-09-13T10:27:00.770Z,26.13
2022-09-13T10:29:29.113Z,25.44
2022-09-13T10:32:01.289Z,25.29
2022-09-13T10:34:33.617Z,25.69
2022-09-13T10:37:33.695Z,25.57
2022-09-13T10:40:13.197Z,25.75
2022-09-13T10:42:40.903Z,26.03
2022-09-13T10:45:19.481Z,26.28
2022-09-13T10:47:51.422Z,26.40
2022-09-13T10:50:28.594Z,26.53
2022-09-13T10:52:57.084Z,26.73
2022-09-13T10:55:27.249Z,26.01
2022-09-13T10:58:03.265Z,25.58
2022-09-13T11:01:00.553Z,25.90
2022-09-13T11:03:52.971Z,25.35
2022-09-13T11:06:41.099Z,25.39
2022-09-13T11:09:29.687Z,25.54
2022-09-13T11:12:31.433Z,25.65
2022-09-13T11:15:41.309Z,25.36
2022-09-13T11:18:40.345Z,25.71
2022-09-13T11:21:38.265Z,25.29
2022-09-13T11:24:23.056Z,25.00
2022-09-13T11:27:36.463Z,25.20
2022-09-13T11:30:25.318Z,25.29
2022-09-13T11:33:25.326Z,25.28
2022-09-13T11:36:17.877Z,25.24
2022-09-13T11:39:05.821Z,25.14
2022-09-13T11:42:04.684Z,24.96
2022-09-13T11:45:21.650Z,25.31
2022-09-13T11:48:22.326Z,24.65
2022-09-13T11:51:26.537Z,24.40
2022-09-13T11:54:12.182Z,24.52
2022-09-13T11:56:44.057Z,24.75
2022-09-13T12:00:00.487Z,24.50
2022-09-13T12:03:01.891Z,24.37
2022-09-13T12:05:39.907Z,24.15
2022-09-13T12:08:19.282Z,24.07
2022-09-13T12:11:11.805Z,24.12
2022-09-13T12:14:01.339Z,23.99
2022-09-13T12:17:12.489Z,23.85
2022-09-13T12:19:50.238Z,23.82
2022-09-13T12:22:19.880Z,23.81
2022-09-13T12:24:58.606Z,24.01
2022-09-13T12:27:39.985Z,23.88
2022-09-13T12:30:18.331Z,23.38
2022-09-13T12:32:47.980Z,23.49
2022-09-13T12:35:29.263Z,22.90
2022-09-13T12:38:20.664Z,22.92
2022-09-13T12:41:16.709Z,22.74
2022-09-13T12:44:02.268Z,22.78
2022-09-13T12:47:03.613Z,22.58
2022-09-13T12:50:36.759Z,22.34
2022-09-13T12:53:27.246Z,22.11
2022-09-13T12:56:25.654Z,22.09
2022-09-13T12:59:14.653Z,22.09
2022-09-13T13:01:48.652Z,21.97
2022-09-13T13:04:20.407Z,22.06
2022-09-13T13:06:55.989Z,21.93
2022-09-13T13:09:53.764Z,21.57
2022-09-13T13:12:39.459Z,21.35
2022-09-13T13:15:15.725Z,21.42
2022-09-13T13:17:51.070Z,21.41
2022-09-13T13:20:48.365Z,21.27
2022-09-13T13:23:18.534Z,21.15
2022-09-13T13:26:10.123Z,21.12
2022-09-13T13:28:47.232Z,21.03
2022-09-13T13:31:32.261Z,20.97
2022-09-13T13:34:06.639Z,20.88
2022-09-13T13:36:44.023Z,21.03
2022-09-13T13:39:14.170Z,21.15
2022-09-13T13:41:53.676Z,21.18
2022-09-13T13:44:20.550Z,21.21
2022-09-13T13:46:53.674Z,21.02
2022-09-13T13:49:35.473Z,20.97
2022-09-13T13:52:11.568Z,20.98
2022-09-13T13:54:59.444Z,21.15
2022-09-13T13:57:41.657Z,20.95
2022-09-13T14:00:19.715Z,21.16
2022-09-13T14:02:49.321Z,21.18
2022-09-13T14:06:12.843Z,21.17
2022-09-13T14:12:07.937Z,20.99
2022-09-13T14:15:21.967Z,20.85
2022-09-13T14:18:32.660Z,21.03
2022-09-13T14:21:18.351Z,21.06
2022-09-13T14:23:45.306Z,21.00
2022-09-13T14:26:12.794Z,20.97
2022-09-13T14:28:40.418Z,20.80
2022-09-13T14:31:08.281Z,20.66
2022-09-13T14:33:37.730Z,20.71
2022-09-13T14:36:19.155Z,20.80
2022-09-13T14:38:58.802Z,20.70
2022-09-13T14:41:38.894Z,20.70
2022-09-13T14:44:23.656Z,20.89
2022-09-13T14:47:12.131Z,20.78
2022-09-13T14:49:52.009Z,20.83
2022-09-13T14:52:36.440Z,20.53
2022-09-13T14:55:12.978Z,20.73
2022-09-13T14:57:50.092Z,20.36
2022-09-13T15:00:24.399Z,20.44
2022-09-13T15:03:03.370Z,20.49
2022-09-13T15:05:34.069Z,20.48
2022-09-13T15:08:24.888Z,20.45
2022-09-13T15:10:52.550Z,20.39
2022-09-13T15:13:19.466Z,20.32
2022-09-13T15:15:46.729Z,20.27
2022-09-13T15:18:25.620Z,20.32
2022-09-13T15:21:07.466Z,20.20
2022-09-13T15:23:43.326Z,20.10
2022-09-13T15:26:25.986Z,20.04
2022-09-13T15:28:57.270Z,20.31
2022-09-13T15:31:28.694Z,20.08
2022-09-13T15:34:16.958Z,19.92
2022-09-13T15:36:49.314Z,19.92
2022-09-13T15:39:21.474Z,19.89
2022-09-13T15:41:58.990Z,19.84
2022-09-13T15:44:28.110Z,19.83
2022-09-13T15:47:02.364Z,19.94
2022-09-13T15:49:30.161Z,19.91
2022-09-13T15:52:02.745Z,19.91
2022-09-13T15:54:42.228Z,19.95
2022-09-13T15:57:29.588Z,19.73
2022-09-13T16:00:01.491Z,19.68
2022-09-13T16:02:35.718Z,19.62
2022-09-13T16:05:02.682Z,19.70
2022-09-13T16:07:29.616Z,19.53
2022-09-13T16:09:56.555Z,19.56
2022-09-13T16:12:24.339Z,19.51
2022-09-13T16:14:51.310Z,19.48
2022-09-13T16:17:25.469Z,19.50
2022-09-13T16:19:53.906Z,19.40
2022-09-13T16:22:23.109Z,19.23
2022-09-13T16:24:50.296Z,19.20
2022-09-13T16:27:18.897Z,19.22
2022-09-13T16:29:46.526Z,19.08
2022-09-13T16:32:13.551Z,18.96
2022-09-13T16:34:40.750Z,18.97
2022-09-13T16:37:07.814Z,19.03
2022-09-13T16:39:34.830Z,18.99
2022-09-13T16:42:01.808Z,18.96
2022-09-13T16:44:28.819Z,18.89
2022-09-13T16:46:56.029Z,18.99
2022-09-13T16:49:23.339Z,19.02
2022-09-13T16:51:50.339Z,19.10
2022-09-13T16:54:17.293Z,18.89
2022-09-13T16:56:44.417Z,18.98
2022-09-13T16:59:11.795Z,18.93
2022-09-13T17:01:39.144Z,18.91
2022-09-13T17:04:06.398Z,18.85
2022-09-13T17:06:33.314Z,18.80
2022-09-13T17:09:03.797Z,18.86
2022-09-13T17:11:35.881Z,18.80
2022-09-13T17:14:06.777Z,18.56
2022-09-13T17:16:42.746Z,18.63
2022-09-13T17:19:21.212Z,18.64
2022-09-13T17:21:49.269Z,18.62
2022-09-13T17:24:16.645Z,18.58
2022-09-13T17:26:45.387Z,18.62
2022-09-13T17:29:13.367Z,18.59
2022-09-13T17:31:43.381Z,18.55
2022-09-13T17:34:12.226Z,18.58
2022-09-13T17:36:43.635Z,18.57
2022-09-13T17:39:11.792Z,18.58
2022-09-13T17:41:39.659Z,18.71
2022-09-13T17:44:07.308Z,18.57
2022-09-13T17:46:34.421Z,18.61
2022-09-13T17:49:02.072Z,18.59
2022-09-13T17:51:31.735Z,18.52
2022-09-13T17:54:02.751Z,18.69
2022-09-13T17:56:42.563Z,18.55
2022-09-13T17:59:18.008Z,18.44
2022-09-13T18:01:49.498Z,18.41
2022-09-13T18:04:19.174Z,18.47
2022-09-13T18:06:46.872Z,18.40
2022-09-13T18:09:16.420Z,18.45
2022-09-13T18:11:43.538Z,18.29
2022-09-13T18:14:16.670Z,18.27
2022-09-13T18:16:45.345Z,18.19
2022-09-13T18:19:13.143Z,18.24
2022-09-13T18:21:41.020Z,18.40
2022-09-13T18:24:08.493Z,18.32
2022-09-13T18:26:36.905Z,18.27
2022-09-13T18:29:13.687Z,18.21
2022-09-13T18:31:42.730Z,18.27
2022-09-13T18:34:14.624Z,18.27
2022-09-13T18:36:42.798Z,18.02
2022-09-13T18:39:23.241Z,18.11
2022-09-13T18:41:51.732Z,18.22
2022-09-13T18:44:19.279Z,18.20
2022-09-13T18:46:47.473Z,18.10
2022-09-13T18:49:15.230Z,18.02
2022-09-13T18:51:44.969Z,18.03
2022-09-13T18:54:18.603Z,18.03
2022-09-13T18:56:48.216Z,18.28
2022-09-13T18:59:15.506Z,18.07
2022-09-13T19:01:44.855Z,18.10
2022-09-13T19:04:19.019Z,17.98
2022-09-13T19:07:02.201Z,18.10
2022-09-13T19:09:30.409Z,17.98
2022-09-13T19:11:59.505Z,17.94
2022-09-13T19:14:28.643Z,17.92
2022-09-13T19:17:05.229Z,17.85
2022-09-13T19:19:33.904Z,17.88
2022-09-13T19:22:00.895Z,17.93
2022-09-13T19:24:29.437Z,17.88
2022-09-13T19:26:56.706Z,17.88
2022-09-13T19:29:25.352Z,17.89
2022-09-13T19:31:54.158Z,17.82
2022-09-13T19:34:24.233Z,17.93
2022-09-13T19:36:58.301Z,17.93
2022-09-13T19:39:30.034Z,18.07
2022-09-13T19:42:00.514Z,18.08
2022-09-13T19:44:28.784Z,18.05
2022-09-13T19:47:42.805Z,18.04
2022-09-13T19:49:44.854Z,17.95
2022-09-13T19:52:12.313Z,17.93
2022-09-13T19:54:41.768Z,17.93
2022-09-13T19:57:10.373Z,18.04
2022-09-13T19:59:37.895Z,17.96
2022-09-13T20:02:05.411Z,17.88
2022-09-13T20:04:32.696Z,17.83
2022-09-13T20:07:00.298Z,17.81
2022-09-13T20:09:27.665Z,17.81
2022-09-13T20:12:00.992Z,17.83
2022-09-13T20:14:29.200Z,17.95
2022-09-13T20:16:56.334Z,17.77
2022-09-13T20:19:40.597Z,17.74
2022-09-13T20:22:10.493Z,17.71
2022-09-13T20:24:40.025Z,17.67
2022-09-13T20:27:07.830Z,17.70
2022-09-13T20:29:35.705Z,17.75
2022-09-13T20:32:03.802Z,17.84
2022-09-13T20:34:31.858Z,17.76
2022-09-13T20:36:59.166Z,17.71
2022-09-13T20:39:26.660Z,17.65
2022-09-13T20:41:54.697Z,17.83
2022-09-13T20:44:22.169Z,17.64
2022-09-13T20:46:49.978Z,17.74
2022-09-13T20:49:17.853Z,17.62
2022-09-13T20:51:46.662Z,17.64
2022-09-13T20:54:13.619Z,17.64
2022-09-13T20:56:40.575Z,17.60
2022-09-13T20:59:07.641Z,17.78
2022-09-13T21:01:35.198Z,17.73
2022-09-13T21:04:03.609Z,17.64
2022-09-13T21:06:36.404Z,17.62
2022-09-13T21:09:03.561Z,17.62
2022-09-13T21:11:36.588Z,17.71
2022-09-13T21:14:06.815Z,17.57
2022-09-13T21:16:39.344Z,17.64
2022-09-13T21:19:07.454Z,17.56
2022-09-13T21:21:38.209Z,17.67
2022-09-13T21:24:09.794Z,17.47
2022-09-13T21:26:42.183Z,17.51
2022-09-13T21:29:10.546Z,17.43
2022-09-13T21:31:38.630Z,17.38
2022-09-13T21:34:11.797Z,17.41
2022-09-13T21:36:39.305Z,17.44
2022-09-13T21:39:06.507Z,17.43
2022-09-13T21:41:34.657Z,17.40
2022-09-13T21:44:01.856Z,17.36
2022-09-13T21:46:35.906Z,17.30
2022-09-13T21:49:07.220Z,17.29
2022-09-13T21:51:47.113Z,17.23
2022-09-13T21:54:17.610Z,17.16
2022-09-13T21:56:52.253Z,17.22
2022-09-13T21:59:21.371Z,17.16
2022-09-13T22:01:51.467Z,17.13
2022-09-13T22:04:22.467Z,17.10
2022-09-13T22:06:52.231Z,17.02
2022-09-13T22:09:22.279Z,17.14
2022-09-13T22:11:49.685Z,17.00
2022-09-13T22:14:19.937Z,17.04
2022-09-13T22:16:47.000Z,17.07
2022-09-13T22:19:26.038Z,17.04
2022-09-13T22:21:59.657Z,17.09
2022-09-13T22:24:32.133Z,17.05
2022-09-13T22:26:59.609Z,17.01
2022-09-13T22:29:27.423Z,16.93
2022-09-13T22:31:54.915Z,16.98
2022-09-13T22:34:25.024Z,17.04
2022-09-13T22:36:55.246Z,16.97
2022-09-13T22:39:22.417Z,17.04
2022-09-13T22:41:49.324Z,16.98
2022-09-13T22:44:16.339Z,16.96
2022-09-13T22:46:45.764Z,17.07
2022-09-13T22:49:16.676Z,16.95
2022-09-13T22:51:47.797Z,16.96
2022-09-13T22:54:17.081Z,16.95
2022-09-13T22:56:44.730Z,16.87
2022-09-13T22:59:21.146Z,16.86
2022-09-13T23:01:49.110Z,16.83
2022-09-13T23:04:16.571Z,16.97
2022-09-13T23:06:44.418Z,16.95
2022-09-13T23:09:16.847Z,17.05
2022-09-13T23:11:44.496Z,16.96
2022-09-13T23:14:14.767Z,16.99
2022-09-13T23:16:50.149Z,16.97
2022-09-13T23:19:20.121Z,17.04
2022-09-13T23:21:47.145Z,16.92
2022-09-13T23:24:17.611Z,16.80
2022-09-13T23:26:45.647Z,16.74
2022-09-13T23:29:17.312Z,16.78
2022-09-13T23:31:46.859Z,16.73
2022-09-13T23:34:15.139Z,16.71
2022-09-13T23:36:44.435Z,16.80
2022-09-13T23:39:18.312Z,16.73
2022-09-13T23:41:47.719Z,16.58
2022-09-13T23:44:15.365Z,16.54
2022-09-13T23:46:42.524Z,16.51
2022-09-13T23:49:09.428Z,16.54
2022-09-13T23:51:36.596Z,16.54
2022-09-13T23:54:03.957Z,16.56
2022-09-13T23:56:32.523Z,16.42
2022-09-13T23:59:02.247Z,16.51
